sensor_id;sensor_type;location;lat;lon;timestamp;pressure;altitude;pressure_sealevel;temperature;humidity
8366;BME280;4220;42.502;24.188;2023-12-22T00:01:15;93711.59;;;1.38;100.00
8366;BME280;4220;42.502;24.188;2023-12-22T00:03:42;93710.78;;;1.37;100.00
8366;BME280;4220;42.502;24.188;2023-12-22T00:06:11;93710.91;;;1.16;100.00
8366;BME280;4220;42.502;24.188;2023-12-22T00:08:38;93701.09;;;1.24;100.00
8366;BME280;4220;42.502;24.188;2023-12-22T00:11:04;93697.69;;;1.30;100.00
8366;BME280;4220;42.502;24.188;2023-12-22T00:13:31;93695.09;;;1.44;100.00
8366;BME280;4220;42.502;24.188;2023-12-22T00:16:00;93704.75;;;1.43;100.00
8366;BME280;4220;42.502;24.188;2023-12-22T00:18:27;93676.59;;;1.19;100.00
8366;BME280;4220;42.502;24.188;2023-12-22T00:20:54;93689.03;;;1.23;100.00
8366;BME280;4220;42.502;24.188;2023-12-22T00:23:20;93688.06;;;1.24;100.00
8366;BME280;4220;42.502;24.188;2023-12-22T00:25:47;93697.47;;;1.25;100.00
8366;BME280;4220;42.502;24.188;2023-12-22T00:28:14;93682.00;;;1.11;100.00
8366;BME280;4220;42.502;24.188;2023-12-22T00:30:41;93685.44;;;1.18;100.00
8366;BME280;4220;42.502;24.188;2023-12-22T00:33:09;93657.28;;;1.13;100.00
8366;BME280;4220;42.502;24.188;2023-12-22T00:35:36;93679.44;;;1.44;100.00
8366;BME280;4220;42.502;24.188;2023-12-22T00:38:03;93690.69;;;1.57;100.00
8366;BME280;4220;42.502;24.188;2023-12-22T00:40:30;93685.47;;;1.57;100.00
8366;BME280;4220;42.502;24.188;2023-12-22T00:42:56;93678.44;;;1.64;100.00
8366;BME280;4220;42.502;24.188;2023-12-22T00:45:23;93693.09;;;1.78;100.00
8366;BME280;4220;42.502;24.188;2023-12-22T00:47:50;93697.69;;;1.89;100.00
8366;BME280;4220;42.502;24.188;2023-12-22T00:50:18;93681.81;;;1.97;100.00
8366;BME280;4220;42.502;24.188;2023-12-22T00:52:45;93677.78;;;2.02;100.00
8366;BME280;4220;42.502;24.188;2023-12-22T00:55:11;93665.72;;;2.01;100.00
8366;BME280;4220;42.502;24.188;2023-12-22T00:57:38;93621.72;;;1.84;100.00
8366;BME280;4220;42.502;24.188;2023-12-22T01:00:06;93663.09;;;2.07;100.00
8366;BME280;4220;42.502;24.188;2023-12-22T01:02:35;93663.13;;;1.94;100.00
8366;BME280;4220;42.502;24.188;2023-12-22T01:05:03;93652.09;;;1.72;100.00
8366;BME280;4220;42.502;24.188;2023-12-22T01:07:31;93651.66;;;1.82;100.00
8366;BME280;4220;42.502;24.188;2023-12-22T01:09:57;93649.50;;;1.59;100.00
8366;BME280;4220;42.502;24.188;2023-12-22T01:12:26;93653.31;;;1.63;100.00
8366;BME280;4220;42.502;24.188;2023-12-22T01:14:53;93638.22;;;1.65;100.00
8366;BME280;4220;42.502;24.188;2023-12-22T01:17:20;93639.81;;;1.60;100.00
8366;BME280;4220;42.502;24.188;2023-12-22T01:19:47;93634.41;;;1.61;100.00
8366;BME280;4220;42.502;24.188;2023-12-22T01:22:14;93632.41;;;1.76;100.00
8366;BME280;4220;42.502;24.188;2023-12-22T01:24:42;93620.94;;;1.84;100.00
8366;BME280;4220;42.502;24.188;2023-12-22T01:27:10;93622.97;;;1.56;100.00
8366;BME280;4220;42.502;24.188;2023-12-22T01:29:38;93610.72;;;1.43;100.00
8366;BME280;4220;42.502;24.188;2023-12-22T01:32:05;93602.69;;;1.51;100.00
8366;BME280;4220;42.502;24.188;2023-12-22T01:34:32;93610.94;;;1.55;100.00
8366;BME280;4220;42.502;24.188;2023-12-22T01:36:59;93606.28;;;1.63;100.00
8366;BME280;4220;42.502;24.188;2023-12-22T01:39:25;93599.81;;;1.72;100.00
8366;BME280;4220;42.502;24.188;2023-12-22T01:41:54;93596.41;;;1.78;100.00
8366;BME280;4220;42.502;24.188;2023-12-22T01:44:20;93597.38;;;1.90;100.00
8366;BME280;4220;42.502;24.188;2023-12-22T01:46:47;93587.34;;;1.94;100.00
8366;BME280;4220;42.502;24.188;2023-12-22T01:49:14;93592.13;;;2.04;100.00
8366;BME280;4220;42.502;24.188;2023-12-22T01:51:42;93595.31;;;2.12;100.00
8366;BME280;4220;42.502;24.188;2023-12-22T01:54:09;93589.25;;;2.18;100.00
8366;BME280;4220;42.502;24.188;2023-12-22T01:56:36;93581.78;;;2.22;100.00
8366;BME280;4220;42.502;24.188;2023-12-22T01:59:05;93576.78;;;2.20;100.00
8366;BME280;4220;42.502;24.188;2023-12-22T02:01:33;93549.91;;;2.00;100.00
8366;BME280;4220;42.502;24.188;2023-12-22T02:04:00;93580.56;;;2.31;100.00
8366;BME280;4220;42.502;24.188;2023-12-22T02:06:30;93585.16;;;2.35;100.00
8366;BME280;4220;42.502;24.188;2023-12-22T02:08:57;93584.94;;;2.37;100.00
8366;BME280;4220;42.502;24.188;2023-12-22T02:11:24;93593.16;;;2.47;100.00
8366;BME280;4220;42.502;24.188;2023-12-22T02:13:51;93569.47;;;2.35;100.00
8366;BME280;4220;42.502;24.188;2023-12-22T02:16:28;93549.19;;;2.24;100.00
8366;BME280;4220;42.502;24.188;2023-12-22T02:18:59;93577.03;;;2.50;100.00
8366;BME280;4220;42.502;24.188;2023-12-22T02:21:30;93593.56;;;2.50;100.00
8366;BME280;4220;42.502;24.188;2023-12-22T02:23:58;93581.78;;;2.28;100.00
8366;BME280;4220;42.502;24.188;2023-12-22T02:26:28;93574.78;;;2.09;100.00
8366;BME280;4220;42.502;24.188;2023-12-22T02:28:59;93566.97;;;2.03;100.00
8366;BME280;4220;42.502;24.188;2023-12-22T02:31:33;93529.19;;;1.92;100.00
8366;BME280;4220;42.502;24.188;2023-12-22T02:34:05;93570.19;;;2.05;100.00
8366;BME280;4220;42.502;24.188;2023-12-22T02:36:35;93567.94;;;2.15;100.00
8366;BME280;4220;42.502;24.188;2023-12-22T02:39:04;93562.84;;;2.26;100.00
8366;BME280;4220;42.502;24.188;2023-12-22T02:41:32;93564.25;;;2.35;100.00
8366;BME280;4220;42.502;24.188;2023-12-22T02:43:59;93549.41;;;2.23;100.00
8366;BME280;4220;42.502;24.188;2023-12-22T02:46:26;93549.94;;;2.31;100.00
8366;BME280;4220;42.502;24.188;2023-12-22T02:48:52;93555.38;;;2.36;100.00
8366;BME280;4220;42.502;24.188;2023-12-22T02:51:19;93555.19;;;2.31;100.00
8366;BME280;4220;42.502;24.188;2023-12-22T02:53:46;93555.00;;;2.33;100.00
8366;BME280;4220;42.502;24.188;2023-12-22T02:56:14;93553.66;;;2.17;100.00
8366;BME280;4220;42.502;24.188;2023-12-22T02:58:41;93548.59;;;2.22;100.00
8366;BME280;4220;42.502;24.188;2023-12-22T03:01:07;93544.94;;;2.30;100.00
8366;BME280;4220;42.502;24.188;2023-12-22T03:03:34;93535.25;;;2.37;100.00
8366;BME280;4220;42.502;24.188;2023-12-22T03:06:01;93541.66;;;2.41;100.00
8366;BME280;4220;42.502;24.188;2023-12-22T03:08:28;93534.59;;;2.48;100.00
8366;BME280;4220;42.502;24.188;2023-12-22T03:10:54;93530.59;;;2.39;100.00
8366;BME280;4220;42.502;24.188;2023-12-22T03:13:23;93533.63;;;2.42;100.00
8366;BME280;4220;42.502;24.188;2023-12-22T03:15:49;93533.56;;;2.49;100.00
8366;BME280;4220;42.502;24.188;2023-12-22T03:18:16;93527.69;;;2.53;100.00
8366;BME280;4220;42.502;24.188;2023-12-22T03:20:43;93532.75;;;2.55;100.00
8366;BME280;4220;42.502;24.188;2023-12-22T03:23:10;93528.50;;;2.54;100.00
8366;BME280;4220;42.502;24.188;2023-12-22T03:25:36;93540.19;;;2.51;100.00
8366;BME280;4220;42.502;24.188;2023-12-22T03:28:04;93522.75;;;2.39;100.00
8366;BME280;4220;42.502;24.188;2023-12-22T03:30:32;93512.63;;;2.49;100.00
8366;BME280;4220;42.502;24.188;2023-12-22T03:33:01;93516.22;;;2.54;100.00
8366;BME280;4220;42.502;24.188;2023-12-22T03:35:27;93526.88;;;2.59;100.00
8366;BME280;4220;42.502;24.188;2023-12-22T03:37:54;93529.91;;;2.56;100.00
8366;BME280;4220;42.502;24.188;2023-12-22T03:40:21;93532.31;;;2.58;100.00
8366;BME280;4220;42.502;24.188;2023-12-22T03:42:48;93524.78;;;2.68;100.00
8366;BME280;4220;42.502;24.188;2023-12-22T03:45:14;93531.81;;;2.74;100.00
8366;BME280;4220;42.502;24.188;2023-12-22T03:47:42;93528.78;;;2.77;100.00
8366;BME280;4220;42.502;24.188;2023-12-22T03:50:09;93504.03;;;2.73;100.00
8366;BME280;4220;42.502;24.188;2023-12-22T03:52:36;93525.28;;;2.83;100.00
8366;BME280;4220;42.502;24.188;2023-12-22T03:55:03;93528.19;;;2.75;100.00
8366;BME280;4220;42.502;24.188;2023-12-22T03:57:30;93529.13;;;2.81;100.00
8366;BME280;4220;42.502;24.188;2023-12-22T03:59:57;93525.25;;;2.90;100.00
8366;BME280;4220;42.502;24.188;2023-12-22T04:02:24;93518.81;;;2.92;100.00
8366;BME280;4220;42.502;24.188;2023-12-22T04:04:52;93505.56;;;2.81;100.00
8366;BME280;4220;42.502;24.188;2023-12-22T04:07:19;93516.03;;;2.87;100.00
8366;BME280;4220;42.502;24.188;2023-12-22T04:09:45;93509.91;;;2.93;100.00
8366;BME280;4220;42.502;24.188;2023-12-22T04:12:12;93509.25;;;3.04;100.00
8366;BME280;4220;42.502;24.188;2023-12-22T04:14:39;93512.03;;;3.09;100.00
8366;BME280;4220;42.502;24.188;2023-12-22T04:17:06;93504.84;;;2.98;100.00
8366;BME280;4220;42.502;24.188;2023-12-22T04:19:32;93497.00;;;2.98;100.00
8366;BME280;4220;42.502;24.188;2023-12-22T04:22:00;93513.50;;;2.99;100.00
8366;BME280;4220;42.502;24.188;2023-12-22T04:24:28;93503.84;;;2.99;100.00
8366;BME280;4220;42.502;24.188;2023-12-22T04:26:55;93519.50;;;3.06;100.00
8366;BME280;4220;42.502;24.188;2023-12-22T04:29:21;93525.53;;;3.06;100.00
8366;BME280;4220;42.502;24.188;2023-12-22T04:31:48;93519.88;;;3.09;100.00
8366;BME280;4220;42.502;24.188;2023-12-22T04:34:15;93517.25;;;3.09;100.00
8366;BME280;4220;42.502;24.188;2023-12-22T04:36:41;93506.63;;;3.04;100.00
8366;BME280;4220;42.502;24.188;2023-12-22T04:39:10;93501.81;;;3.01;100.00
8366;BME280;4220;42.502;24.188;2023-12-22T04:41:36;93500.03;;;2.95;100.00
8366;BME280;4220;42.502;24.188;2023-12-22T04:44:03;93499.59;;;2.98;100.00
8366;BME280;4220;42.502;24.188;2023-12-22T04:46:30;93474.88;;;2.94;100.00
8366;BME280;4220;42.502;24.188;2023-12-22T04:48:57;93497.84;;;3.17;100.00
8366;BME280;4220;42.502;24.188;2023-12-22T04:51:24;93490.44;;;3.32;100.00
8366;BME280;4220;42.502;24.188;2023-12-22T04:53:50;93494.47;;;3.53;100.00
8366;BME280;4220;42.502;24.188;2023-12-22T04:56:19;93489.16;;;3.77;100.00
8366;BME280;4220;42.502;24.188;2023-12-22T04:58:46;93489.22;;;3.89;100.00
8366;BME280;4220;42.502;24.188;2023-12-22T05:01:12;93485.38;;;4.10;100.00
8366;BME280;4220;42.502;24.188;2023-12-22T05:03:39;93476.88;;;4.26;100.00
8366;BME280;4220;42.502;24.188;2023-12-22T05:06:06;93480.13;;;4.39;100.00
8366;BME280;4220;42.502;24.188;2023-12-22T05:08:32;93480.97;;;4.51;100.00
8366;BME280;4220;42.502;24.188;2023-12-22T05:10:59;93485.31;;;4.57;100.00
8366;BME280;4220;42.502;24.188;2023-12-22T05:13:27;93490.50;;;4.64;100.00
8366;BME280;4220;42.502;24.188;2023-12-22T05:15:54;93492.66;;;4.67;100.00
8366;BME280;4220;42.502;24.188;2023-12-22T05:18:21;93490.38;;;4.71;100.00
8366;BME280;4220;42.502;24.188;2023-12-22T05:20:48;93486.84;;;4.77;100.00
8366;BME280;4220;42.502;24.188;2023-12-22T05:23:15;93476.25;;;4.83;100.00
8366;BME280;4220;42.502;24.188;2023-12-22T05:25:42;93479.91;;;4.82;100.00
8366;BME280;4220;42.502;24.188;2023-12-22T05:28:09;93477.06;;;4.84;100.00
8366;BME280;4220;42.502;24.188;2023-12-22T05:30:37;93491.88;;;4.78;100.00
8366;BME280;4220;42.502;24.188;2023-12-22T05:33:04;93497.47;;;4.82;100.00
8366;BME280;4220;42.502;24.188;2023-12-22T05:35:30;93502.84;;;4.87;100.00
8366;BME280;4220;42.502;24.188;2023-12-22T05:37:57;93491.56;;;4.86;100.00
8366;BME280;4220;42.502;24.188;2023-12-22T05:40:24;93492.00;;;4.83;100.00
8366;BME280;4220;42.502;24.188;2023-12-22T05:42:51;93490.31;;;4.89;100.00
8366;BME280;4220;42.502;24.188;2023-12-22T05:45:17;93492.47;;;4.80;100.00
8366;BME280;4220;42.502;24.188;2023-12-22T05:47:46;93490.50;;;4.76;100.00
8366;BME280;4220;42.502;24.188;2023-12-22T05:50:13;93489.38;;;4.72;100.00
8366;BME280;4220;42.502;24.188;2023-12-22T05:52:40;93494.78;;;4.47;100.00
8366;BME280;4220;42.502;24.188;2023-12-22T05:55:07;93485.88;;;4.59;100.00
8366;BME280;4220;42.502;24.188;2023-12-22T05:57:34;93491.75;;;4.73;100.00
8366;BME280;4220;42.502;24.188;2023-12-22T06:00:01;93509.84;;;4.81;100.00
8366;BME280;4220;42.502;24.188;2023-12-22T06:02:30;93497.41;;;4.88;100.00
8366;BME280;4220;42.502;24.188;2023-12-22T06:04:58;93512.84;;;5.08;100.00
8366;BME280;4220;42.502;24.188;2023-12-22T06:07:23;93513.41;;;5.10;100.00
8366;BME280;4220;42.502;24.188;2023-12-22T06:09:50;93507.28;;;5.16;100.00
8366;BME280;4220;42.502;24.188;2023-12-22T06:12:17;93508.41;;;5.20;100.00
8366;BME280;4220;42.502;24.188;2023-12-22T06:14:44;93513.09;;;5.29;100.00
8366;BME280;4220;42.502;24.188;2023-12-22T06:17:11;93487.84;;;5.17;100.00
8366;BME280;4220;42.502;24.188;2023-12-22T06:19:37;93517.00;;;5.39;100.00
8366;BME280;4220;42.502;24.188;2023-12-22T06:22:05;93513.09;;;5.41;100.00
8366;BME280;4220;42.502;24.188;2023-12-22T06:24:34;93510.91;;;5.38;100.00
8366;BME280;4220;42.502;24.188;2023-12-22T06:27:01;93479.50;;;5.20;100.00
8366;BME280;4220;42.502;24.188;2023-12-22T06:29:28;93515.28;;;5.44;100.00
8366;BME280;4220;42.502;24.188;2023-12-22T06:31:56;93507.97;;;5.46;100.00
8366;BME280;4220;42.502;24.188;2023-12-22T06:34:22;93513.22;;;5.46;100.00
8366;BME280;4220;42.502;24.188;2023-12-22T06:36:51;93495.75;;;5.40;100.00
8366;BME280;4220;42.502;24.188;2023-12-22T06:39:19;93512.44;;;5.57;100.00
8366;BME280;4220;42.502;24.188;2023-12-22T06:41:46;93499.28;;;5.57;100.00
8366;BME280;4220;42.502;24.188;2023-12-22T06:44:13;93484.97;;;5.53;100.00
8366;BME280;4220;42.502;24.188;2023-12-22T06:46:40;93499.41;;;5.62;100.00
8366;BME280;4220;42.502;24.188;2023-12-22T06:49:06;93495.03;;;5.68;100.00
8366;BME280;4220;42.502;24.188;2023-12-22T06:51:33;93500.53;;;5.66;100.00
8366;BME280;4220;42.502;24.188;2023-12-22T06:54:01;93500.78;;;5.65;100.00
8366;BME280;4220;42.502;24.188;2023-12-22T06:56:33;93472.06;;;5.63;100.00
8366;BME280;4220;42.502;24.188;2023-12-22T06:59:00;93500.97;;;5.63;100.00
8366;BME280;4220;42.502;24.188;2023-12-22T07:01:30;93461.31;;;5.53;100.00
8366;BME280;4220;42.502;24.188;2023-12-22T07:03:58;93493.44;;;5.67;100.00
8366;BME280;4220;42.502;24.188;2023-12-22T07:06:27;93487.03;;;5.63;100.00
8366;BME280;4220;42.502;24.188;2023-12-22T07:11:43;93483.94;;;5.77;100.00
8366;BME280;4220;42.502;24.188;2023-12-22T07:14:11;93504.06;;;5.83;100.00
8366;BME280;4220;42.502;24.188;2023-12-22T07:16:38;93490.25;;;5.88;100.00
8366;BME280;4220;42.502;24.188;2023-12-22T07:19:05;93491.03;;;5.88;100.00
8366;BME280;4220;42.502;24.188;2023-12-22T07:21:32;93495.03;;;5.91;100.00
8366;BME280;4220;42.502;24.188;2023-12-22T07:23:59;93494.34;;;5.96;100.00
8366;BME280;4220;42.502;24.188;2023-12-22T07:26:26;93493.44;;;6.02;100.00
8366;BME280;4220;42.502;24.188;2023-12-22T07:28:54;93498.81;;;6.07;100.00
8366;BME280;4220;42.502;24.188;2023-12-22T07:31:21;93486.78;;;6.11;100.00
8366;BME280;4220;42.502;24.188;2023-12-22T07:33:48;93497.84;;;6.13;100.00
8366;BME280;4220;42.502;24.188;2023-12-22T07:36:14;93499.78;;;6.17;100.00
8366;BME280;4220;42.502;24.188;2023-12-22T07:38:41;93492.69;;;6.18;100.00
8366;BME280;4220;42.502;24.188;2023-12-22T07:41:08;93482.31;;;6.11;100.00
8366;BME280;4220;42.502;24.188;2023-12-22T07:43:35;93504.50;;;6.15;100.00
8366;BME280;4220;42.502;24.188;2023-12-22T07:46:03;93495.78;;;6.15;100.00
8366;BME280;4220;42.502;24.188;2023-12-22T07:48:30;93494.88;;;6.21;100.00
8366;BME280;4220;42.502;24.188;2023-12-22T07:50:57;93496.78;;;6.25;100.00
8366;BME280;4220;42.502;24.188;2023-12-22T07:53:24;93491.78;;;6.24;100.00
8366;BME280;4220;42.502;24.188;2023-12-22T07:55:51;93499.19;;;6.27;100.00
8366;BME280;4220;42.502;24.188;2023-12-22T07:58:17;93497.13;;;6.29;100.00
8366;BME280;4220;42.502;24.188;2023-12-22T08:00:44;93502.72;;;6.32;100.00
8366;BME280;4220;42.502;24.188;2023-12-22T08:03:13;93506.25;;;6.38;100.00
8366;BME280;4220;42.502;24.188;2023-12-22T08:05:39;93516.88;;;6.43;100.00
8366;BME280;4220;42.502;24.188;2023-12-22T08:08:06;93496.84;;;6.42;100.00
8366;BME280;4220;42.502;24.188;2023-12-22T08:10:33;93499.25;;;6.43;100.00
8366;BME280;4220;42.502;24.188;2023-12-22T08:13:00;93531.88;;;6.42;100.00
8366;BME280;4220;42.502;24.188;2023-12-22T08:15:26;93508.66;;;6.39;100.00
8366;BME280;4220;42.502;24.188;2023-12-22T08:17:53;93511.06;;;6.41;100.00
8366;BME280;4220;42.502;24.188;2023-12-22T08:20:21;93513.19;;;6.44;100.00
8366;BME280;4220;42.502;24.188;2023-12-22T08:22:49;93505.31;;;6.44;100.00
8366;BME280;4220;42.502;24.188;2023-12-22T08:25:16;93512.03;;;6.51;100.00
8366;BME280;4220;42.502;24.188;2023-12-22T08:27:45;93434.38;;;6.09;100.00
8366;BME280;4220;42.502;24.188;2023-12-22T08:30:12;93514.13;;;6.49;100.00
8366;BME280;4220;42.502;24.188;2023-12-22T08:32:39;93518.09;;;6.52;100.00
8366;BME280;4220;42.502;24.188;2023-12-22T08:35:07;93515.00;;;6.55;100.00
8366;BME280;4220;42.502;24.188;2023-12-22T08:37:35;93529.00;;;6.44;100.00
8366;BME280;4220;42.502;24.188;2023-12-22T08:40:03;93532.22;;;6.46;100.00
8366;BME280;4220;42.502;24.188;2023-12-22T08:42:31;93542.63;;;6.52;100.00
8366;BME280;4220;42.502;24.188;2023-12-22T08:44:58;93521.31;;;6.54;100.00
8366;BME280;4220;42.502;24.188;2023-12-22T08:47:25;93543.97;;;6.55;100.00
8366;BME280;4220;42.502;24.188;2023-12-22T08:49:51;93537.59;;;6.51;100.00
8366;BME280;4220;42.502;24.188;2023-12-22T08:52:18;93513.19;;;6.44;100.00
8366;BME280;4220;42.502;24.188;2023-12-22T08:54:46;93529.59;;;6.46;100.00
8366;BME280;4220;42.502;24.188;2023-12-22T08:57:13;93524.22;;;6.41;100.00
8366;BME280;4220;42.502;24.188;2023-12-22T08:59:40;93532.38;;;6.28;100.00
8366;BME280;4220;42.502;24.188;2023-12-22T09:02:06;93543.50;;;6.18;100.00
8366;BME280;4220;42.502;24.188;2023-12-22T09:04:33;93531.72;;;6.21;100.00
8366;BME280;4220;42.502;24.188;2023-12-22T09:07:00;93525.78;;;6.14;100.00
8366;BME280;4220;42.502;24.188;2023-12-22T09:09:27;93519.38;;;6.10;100.00
8366;BME280;4220;42.502;24.188;2023-12-22T09:11:55;93504.41;;;5.99;100.00
8366;BME280;4220;42.502;24.188;2023-12-22T09:14:21;93512.44;;;5.92;100.00
8366;BME280;4220;42.502;24.188;2023-12-22T09:16:49;93525.25;;;5.88;100.00
8366;BME280;4220;42.502;24.188;2023-12-22T09:19:15;93522.84;;;5.87;100.00
8366;BME280;4220;42.502;24.188;2023-12-22T09:21:42;93499.03;;;5.82;100.00
8366;BME280;4220;42.502;24.188;2023-12-22T09:24:10;93533.56;;;5.74;100.00
8366;BME280;4220;42.502;24.188;2023-12-22T09:26:37;93595.31;;;5.71;100.00
8366;BME280;4220;42.502;24.188;2023-12-22T09:29:06;93538.72;;;5.69;100.00
8366;BME280;4220;42.502;24.188;2023-12-22T09:31:33;93531.63;;;5.69;100.00
8366;BME280;4220;42.502;24.188;2023-12-22T09:33:59;93528.31;;;5.62;100.00
8366;BME280;4220;42.502;24.188;2023-12-22T09:36:26;93515.75;;;5.53;100.00
8366;BME280;4220;42.502;24.188;2023-12-22T09:38:53;93520.53;;;5.44;100.00
8366;BME280;4220;42.502;24.188;2023-12-22T09:41:20;93522.81;;;5.41;100.00
8366;BME280;4220;42.502;24.188;2023-12-22T09:43:48;93529.00;;;5.35;100.00
8366;BME280;4220;42.502;24.188;2023-12-22T09:46:20;93528.88;;;5.29;100.00
8366;BME280;4220;42.502;24.188;2023-12-22T09:48:49;93526.94;;;5.25;100.00
8366;BME280;4220;42.502;24.188;2023-12-22T09:51:18;93533.88;;;5.19;100.00
8366;BME280;4220;42.502;24.188;2023-12-22T09:53:46;93526.69;;;5.15;100.00
8366;BME280;4220;42.502;24.188;2023-12-22T09:56:14;93519.47;;;5.10;100.00
8366;BME280;4220;42.502;24.188;2023-12-22T09:58:41;93552.38;;;5.13;100.00
8366;BME280;4220;42.502;24.188;2023-12-22T10:01:08;93547.34;;;5.11;100.00
8366;BME280;4220;42.502;24.188;2023-12-22T10:03:37;93543.34;;;5.09;100.00
8366;BME280;4220;42.502;24.188;2023-12-22T10:06:04;93552.47;;;5.06;100.00
8366;BME280;4220;42.502;24.188;2023-12-22T10:08:32;93541.81;;;5.01;100.00
8366;BME280;4220;42.502;24.188;2023-12-22T10:10:59;93543.88;;;4.99;100.00
8366;BME280;4220;42.502;24.188;2023-12-22T10:13:26;93536.44;;;4.96;100.00
8366;BME280;4220;42.502;24.188;2023-12-22T10:15:54;93549.72;;;5.01;100.00
8366;BME280;4220;42.502;24.188;2023-12-22T10:18:22;93534.19;;;5.00;100.00
8366;BME280;4220;42.502;24.188;2023-12-22T10:20:50;93514.91;;;5.06;100.00
8366;BME280;4220;42.502;24.188;2023-12-22T10:23:17;93521.63;;;5.02;100.00
8366;BME280;4220;42.502;24.188;2023-12-22T10:25:45;93511.69;;;5.04;100.00
8366;BME280;4220;42.502;24.188;2023-12-22T10:28:12;93525.53;;;5.11;100.00
8366;BME280;4220;42.502;24.188;2023-12-22T10:30:40;93499.16;;;5.17;100.00
8366;BME280;4220;42.502;24.188;2023-12-22T10:33:07;93512.75;;;5.26;100.00
8366;BME280;4220;42.502;24.188;2023-12-22T10:35:34;93509.78;;;5.34;100.00
8366;BME280;4220;42.502;24.188;2023-12-22T10:38:03;93499.63;;;5.38;100.00
8366;BME280;4220;42.502;24.188;2023-12-22T10:40:31;93492.19;;;5.46;100.00
8366;BME280;4220;42.502;24.188;2023-12-22T10:42:58;93486.47;;;5.49;100.00
8366;BME280;4220;42.502;24.188;2023-12-22T10:45:25;93473.66;;;5.64;100.00
8366;BME280;4220;42.502;24.188;2023-12-22T10:47:54;93472.94;;;5.80;100.00
8366;BME280;4220;42.502;24.188;2023-12-22T10:50:22;93456.38;;;5.80;100.00
8366;BME280;4220;42.502;24.188;2023-12-22T10:52:50;93470.78;;;6.01;100.00
8366;BME280;4220;42.502;24.188;2023-12-22T10:55:18;93470.41;;;6.09;100.00
8366;BME280;4220;42.502;24.188;2023-12-22T10:57:46;93470.63;;;6.19;100.00
8366;BME280;4220;42.502;24.188;2023-12-22T11:00:15;93462.91;;;6.29;100.00
8366;BME280;4220;42.502;24.188;2023-12-22T11:02:43;93464.41;;;6.25;100.00
8366;BME280;4220;42.502;24.188;2023-12-22T11:05:15;93452.00;;;6.09;100.00
8366;BME280;4220;42.502;24.188;2023-12-22T11:07:48;93457.91;;;6.16;100.00
8366;BME280;4220;42.502;24.188;2023-12-22T11:10:20;93447.81;;;6.24;100.00
8366;BME280;4220;42.502;24.188;2023-12-22T11:12:47;93439.81;;;6.19;100.00
8366;BME280;4220;42.502;24.188;2023-12-22T11:15:15;93482.78;;;6.36;100.00
8366;BME280;4220;42.502;24.188;2023-12-22T11:17:44;93463.97;;;6.44;100.00
8366;BME280;4220;42.502;24.188;2023-12-22T11:20:13;93449.63;;;6.52;100.00
8366;BME280;4220;42.502;24.188;2023-12-22T11:22:42;93452.28;;;6.52;100.00
8366;BME280;4220;42.502;24.188;2023-12-22T11:25:09;93431.28;;;6.40;100.00
8366;BME280;4220;42.502;24.188;2023-12-22T11:27:39;93366.75;;;6.10;100.00
8366;BME280;4220;42.502;24.188;2023-12-22T11:30:07;93409.97;;;6.42;100.00
8366;BME280;4220;42.502;24.188;2023-12-22T11:32:35;93424.41;;;6.56;100.00
8366;BME280;4220;42.502;24.188;2023-12-22T11:35:03;93419.28;;;6.78;100.00
8366;BME280;4220;42.502;24.188;2023-12-22T11:37:35;93420.88;;;6.95;100.00
8366;BME280;4220;42.502;24.188;2023-12-22T11:40:03;93409.53;;;7.11;100.00
8366;BME280;4220;42.502;24.188;2023-12-22T11:42:34;93407.19;;;7.32;100.00
8366;BME280;4220;42.502;24.188;2023-12-22T11:45:04;93398.84;;;7.40;100.00
8366;BME280;4220;42.502;24.188;2023-12-22T11:47:31;93390.31;;;7.33;100.00
8366;BME280;4220;42.502;24.188;2023-12-22T11:49:59;93394.38;;;7.40;100.00
8366;BME280;4220;42.502;24.188;2023-12-22T11:52:26;93414.59;;;7.35;100.00
8366;BME280;4220;42.502;24.188;2023-12-22T11:54:55;93403.00;;;7.52;100.00
8366;BME280;4220;42.502;24.188;2023-12-22T11:57:36;93404.97;;;7.62;100.00
8366;BME280;4220;42.502;24.188;2023-12-22T12:00:09;93287.28;;;6.96;100.00
8366;BME280;4220;42.502;24.188;2023-12-22T12:02:39;93397.56;;;7.80;100.00
8366;BME280;4220;42.502;24.188;2023-12-22T12:05:07;93406.97;;;7.71;100.00
8366;BME280;4220;42.502;24.188;2023-12-22T12:07:38;93382.06;;;7.46;100.00
8366;BME280;4220;42.502;24.188;2023-12-22T12:10:07;93407.25;;;7.75;100.00
8366;BME280;4220;42.502;24.188;2023-12-22T12:12:34;93422.94;;;7.65;100.00
8366;BME280;4220;42.502;24.188;2023-12-22T12:15:08;93435.25;;;7.76;100.00
8366;BME280;4220;42.502;24.188;2023-12-22T12:17:39;93443.53;;;7.84;100.00
8366;BME280;4220;42.502;24.188;2023-12-22T12:20:08;93430.78;;;7.60;100.00
8366;BME280;4220;42.502;24.188;2023-12-22T12:22:36;93437.34;;;7.57;100.00
8366;BME280;4220;42.502;24.188;2023-12-22T12:25:07;93456.44;;;7.64;100.00
8366;BME280;4220;42.502;24.188;2023-12-22T12:27:35;93444.44;;;7.73;100.00
8366;BME280;4220;42.502;24.188;2023-12-22T12:30:13;93452.63;;;7.94;100.00
8366;BME280;4220;42.502;24.188;2023-12-22T12:32:44;93448.94;;;7.95;100.00
8366;BME280;4220;42.502;24.188;2023-12-22T12:35:10;93455.28;;;7.77;100.00
8366;BME280;4220;42.502;24.188;2023-12-22T12:37:38;93461.56;;;7.71;100.00
8366;BME280;4220;42.502;24.188;2023-12-22T12:40:07;93432.16;;;7.84;100.00
8366;BME280;4220;42.502;24.188;2023-12-22T12:42:35;93424.03;;;7.85;100.00
8366;BME280;4220;42.502;24.188;2023-12-22T12:45:04;93432.13;;;8.01;100.00
8366;BME280;4220;42.502;24.188;2023-12-22T12:47:32;93447.34;;;8.15;100.00
8366;BME280;4220;42.502;24.188;2023-12-22T12:49:59;93444.72;;;8.15;100.00
8366;BME280;4220;42.502;24.188;2023-12-22T12:52:26;93450.66;;;8.06;100.00
8366;BME280;4220;42.502;24.188;2023-12-22T12:54:53;93449.59;;;7.85;100.00
8366;BME280;4220;42.502;24.188;2023-12-22T12:57:21;93446.63;;;7.60;100.00
8366;BME280;4220;42.502;24.188;2023-12-22T12:59:49;93455.44;;;7.49;100.00
8366;BME280;4220;42.502;24.188;2023-12-22T13:02:16;93426.69;;;7.31;100.00
8366;BME280;4220;42.502;24.188;2023-12-22T13:04:46;93435.91;;;7.11;100.00
8366;BME280;4220;42.502;24.188;2023-12-22T13:07:28;93454.19;;;7.01;100.00
8366;BME280;4220;42.502;24.188;2023-12-22T13:09:58;93450.00;;;6.72;100.00
8366;BME280;4220;42.502;24.188;2023-12-22T13:12:26;93460.25;;;6.85;100.00
8366;BME280;4220;42.502;24.188;2023-12-22T13:14:54;93457.75;;;6.79;100.00